createdAt,value
2022-08-14T00:00:07.822Z,1011.61
2022-08-14T00:05:11.877Z,1011.49
2022-08-14T00:10:52.071Z,1011.51
2022-08-14T00:15:09.239Z,1011.4
2022-08-14T00:20:08.027Z,1011.35
2022-08-14T00:25:07.737Z,1011.3
2022-08-14T00:30:08.434Z,1011.29
2022-08-14T00:35:07.696Z,1011.28
2022-08-14T00:40:19.174Z,1011.18
2022-08-14T00:45:08.318Z,1011.2
2022-08-14T00:50:08.111Z,1011.09
2022-08-14T00:55:08.395Z,1011.14
2022-08-14T01:00:08.639Z,1011.1
2022-08-14T01:05:08.257Z,1011.02
2022-08-14T01:10:07.951Z,1010.93
2022-08-14T01:15:09.445Z,1010.9
2022-08-14T01:20:08.573Z,1010.89
2022-08-14T01:25:08.557Z,1010.78
2022-08-14T01:30:08.233Z,1010.77
2022-08-14T01:35:18.200Z,1010.8
2022-08-14T01:40:08.127Z,1010.69
2022-08-14T01:45:07.845Z,1010.67
2022-08-14T01:50:08.231Z,1010.54
2022-08-14T01:55:07.881Z,1010.47
2022-08-14T02:00:07.747Z,1010.51
2022-08-14T02:05:07.674Z,1010.37
2022-08-14T02:10:08.343Z,1010.35
2022-08-14T02:15:08.058Z,1010.35
2022-08-14T02:20:07.877Z,1010.22
2022-08-14T02:25:08.745Z,1010.2
2022-08-14T02:30:08.504Z,1010.15
2022-08-14T02:35:08.201Z,1010.13
2022-08-14T02:40:08.121Z,1010.06
2022-08-14T02:45:08.516Z,1010.03
2022-08-14T02:50:08.259Z,1010.12
2022-08-14T02:55:07.973Z,1010.04
2022-08-14T03:00:09.905Z,1010.13
2022-08-14T03:05:07.974Z,1010.11
2022-08-14T03:10:28.260Z,1010.1
2022-08-14T03:15:08.191Z,1010.02
2022-08-14T03:20:11.217Z,1010.06
2022-08-14T03:25:07.805Z,1010.08
2022-08-14T03:30:14.286Z,1009.97
2022-08-14T03:35:08.866Z,1010.06
2022-08-14T03:40:11.313Z,1010.03
2022-08-14T03:45:18.634Z,1010.0
2022-08-14T03:50:08.251Z,1010.0
2022-08-14T03:55:08.473Z,1009.86
2022-08-14T04:00:08.001Z,1009.95
2022-08-14T04:05:12.220Z,1009.88
2022-08-14T04:10:02.800Z,1009.94
2022-08-14T04:15:02.768Z,1009.97
2022-08-14T04:20:02.634Z,1009.85
2022-08-14T04:25:05.116Z,1009.86
2022-08-14T04:30:02.345Z,1009.8
2022-08-14T04:35:07.220Z,1009.81
2022-08-14T04:40:03.125Z,1009.8
2022-08-14T04:45:02.213Z,1009.78
2022-08-14T04:50:03.348Z,1009.68
2022-08-14T04:55:02.013Z,1009.72
2022-08-14T05:00:02.372Z,1009.66
2022-08-14T05:05:02.328Z,1009.65
2022-08-14T05:10:13.286Z,1009.65
2022-08-14T05:15:02.575Z,1009.6
2022-08-14T05:21:04.295Z,1009.49
2022-08-14T05:25:02.323Z,1009.52
2022-08-14T05:30:02.140Z,1009.53
2022-08-14T05:35:02.001Z,1009.51
2022-08-14T05:40:01.911Z,1009.43
2022-08-14T05:45:02.487Z,1009.43
2022-08-14T05:50:02.088Z,1009.41
2022-08-14T05:55:01.938Z,1009.31
2022-08-14T06:00:02.432Z,1009.32
2022-08-14T06:05:02.305Z,1009.32
2022-08-14T06:10:04.152Z,1009.32
2022-08-14T06:15:02.188Z,1009.38
2022-08-14T06:20:02.032Z,1009.33
2022-08-14T06:25:02.451Z,1009.34
2022-08-14T06:30:02.527Z,1009.41
2022-08-14T06:35:12.499Z,1009.35
2022-08-14T06:40:02.170Z,1009.39
2022-08-14T06:45:02.763Z,1009.39
2022-08-14T06:50:01.772Z,1009.32
2022-08-14T06:55:01.797Z,1009.28
2022-08-14T07:00:02.677Z,1009.24
2022-08-14T07:05:05.241Z,1009.26
2022-08-14T07:10:02.480Z,1009.3
2022-08-14T07:15:02.427Z,1009.22
2022-08-14T07:20:01.852Z,1009.14
2022-08-14T07:25:02.756Z,1009.18
2022-08-14T07:30:02.824Z,1009.13
2022-08-14T07:35:02.946Z,1009.15
2022-08-14T07:40:01.955Z,1009.15
2022-08-14T07:45:02.027Z,1008.96
2022-08-14T07:50:02.040Z,1008.97
2022-08-14T07:55:01.897Z,1008.97
2022-08-14T08:00:02.717Z,1008.82
2022-08-14T08:05:02.593Z,1008.88
2022-08-14T08:10:02.590Z,1008.85
2022-08-14T08:15:05.621Z,1008.69
2022-08-14T08:20:02.048Z,1008.62
2022-08-14T08:25:01.847Z,1008.59
2022-08-14T08:30:02.605Z,1008.58
2022-08-14T08:35:02.471Z,1008.64
2022-08-14T08:40:04.187Z,1008.49
2022-08-14T08:45:01.809Z,1008.62
2022-08-14T08:50:01.832Z,1008.47
2022-08-14T08:55:04.942Z,1008.53
2022-08-14T09:00:02.547Z,1008.57
2022-08-14T09:05:01.956Z,1008.53
2022-08-14T09:10:01.790Z,1008.61
2022-08-14T09:15:02.541Z,1008.62
2022-08-14T09:20:04.055Z,1008.58
2022-08-14T09:25:02.173Z,1008.38
2022-08-14T09:30:02.070Z,1008.22
2022-08-14T09:35:02.166Z,1008.31
2022-08-14T09:40:02.150Z,1008.24
2022-08-14T09:45:08.389Z,1008.19
2022-08-14T09:50:01.880Z,1008.1
2022-08-14T09:55:03.132Z,1007.92
2022-08-14T10:00:02.619Z,1008.01
2022-08-14T10:05:02.222Z,1007.9
2022-08-14T10:10:02.511Z,1007.79
2022-08-14T10:15:02.620Z,1007.71
2022-08-14T10:20:02.917Z,1007.62
2022-08-14T10:25:02.820Z,1007.49
2022-08-14T10:30:02.860Z,1007.46
2022-08-14T10:35:02.003Z,1007.37
2022-08-14T10:40:05.614Z,1007.37
2022-08-14T10:45:02.605Z,1007.26
2022-08-14T10:50:02.090Z,1007.24
2022-08-14T10:55:02.068Z,1007.32
2022-08-14T11:00:02.420Z,1007.19
2022-08-14T11:05:04.908Z,1007.14
2022-08-14T11:10:01.982Z,1007.11
2022-08-14T11:15:02.909Z,1007.05
2022-08-14T11:20:01.925Z,1006.91
2022-08-14T11:25:02.464Z,1006.88
2022-08-14T11:30:49.978Z,1006.75
2022-08-14T11:35:02.578Z,1006.72
2022-08-14T11:40:02.468Z,1006.74
2022-08-14T11:45:02.307Z,1006.6
2022-08-14T11:50:02.054Z,1006.61
2022-08-14T11:55:01.878Z,1006.63
2022-08-14T12:00:01.970Z,1006.63
2022-08-14T12:05:03.955Z,1006.6
2022-08-14T12:10:26.691Z,1006.55
2022-08-14T12:15:01.987Z,1006.44
2022-08-14T12:20:03.050Z,1006.49
2022-08-14T12:25:04.983Z,1006.43
2022-08-14T12:30:02.421Z,1006.35
2022-08-14T12:35:02.317Z,1006.36
2022-08-14T12:40:02.592Z,1006.36
2022-08-14T12:45:04.170Z,1006.16
2022-08-14T12:50:02.374Z,1006.07
2022-08-14T12:55:06.585Z,1005.95
2022-08-14T13:00:02.112Z,1005.85
2022-08-14T13:05:02.015Z,1005.71
2022-08-14T13:10:34.351Z,1005.65
2022-08-14T13:15:01.754Z,1005.46
2022-08-14T13:20:01.997Z,1005.47
2022-08-14T13:25:02.132Z,1005.38
2022-08-14T13:30:01.841Z,1005.24
2022-08-14T13:35:02.125Z,1005.16
2022-08-14T13:40:02.252Z,1005.1
2022-08-14T13:45:01.964Z,1004.99
2022-08-14T13:50:01.869Z,1004.84
2022-08-14T13:55:02.650Z,1004.86
2022-08-14T14:00:01.885Z,1004.79
2022-08-14T14:05:02.194Z,1004.78
2022-08-14T14:10:06.167Z,1004.77
2022-08-14T14:15:04.955Z,1004.77
2022-08-14T14:20:03.096Z,1004.74
2022-08-14T14:25:02.454Z,1004.64
2022-08-14T14:30:03.494Z,1004.7
2022-08-14T14:35:01.812Z,1004.7
2022-08-14T14:40:50.691Z,1004.64
2022-08-14T14:45:02.652Z,1004.65
2022-08-14T14:50:02.757Z,1004.64
2022-08-14T14:55:02.563Z,1004.58
2022-08-14T15:00:01.776Z,1004.53
2022-08-14T15:05:02.651Z,1004.52
2022-08-14T15:10:02.464Z,1004.46
2022-08-14T15:15:09.016Z,1004.43
2022-08-14T15:20:02.182Z,1004.38
2022-08-14T15:25:02.152Z,1004.4
2022-08-14T15:30:02.290Z,1004.29
2022-08-14T15:35:02.656Z,1004.27
2022-08-14T15:40:02.651Z,1004.25
2022-08-14T15:45:02.571Z,1004.14
2022-08-14T15:50:02.521Z,1004.14
2022-08-14T15:55:01.807Z,1004.06
2022-08-14T16:00:01.984Z,1004.1
2022-08-14T16:05:01.832Z,1004.0
2022-08-14T16:10:27.550Z,1003.89
2022-08-14T16:15:02.311Z,1003.96
2022-08-14T16:20:02.200Z,1003.96
2022-08-14T16:25:03.352Z,1003.83
2022-08-14T16:30:04.052Z,1003.89
2022-08-14T16:35:02.094Z,1003.85
2022-08-14T16:40:02.116Z,1003.85
2022-08-14T16:45:02.080Z,1003.81
2022-08-14T16:50:03.827Z,1003.76
2022-08-14T16:55:02.542Z,1003.66
2022-08-14T17:00:07.422Z,1003.65
2022-08-14T17:05:02.186Z,1003.6
2022-08-14T17:10:09.741Z,1003.53
2022-08-14T17:15:10.770Z,1003.56
2022-08-14T17:20:01.881Z,1003.57
2022-08-14T17:25:03.486Z,1003.55
2022-08-14T17:30:01.912Z,1003.53
2022-08-14T17:35:02.753Z,1003.44
2022-08-14T17:40:02.285Z,1003.5
2022-08-14T17:45:02.346Z,1003.5
2022-08-14T17:50:02.190Z,1003.49
2022-08-14T17:55:02.027Z,1003.5
2022-08-14T18:00:02.610Z,1003.46
2022-08-14T18:05:03.240Z,1003.35
2022-08-14T18:10:52.705Z,1003.45
2022-08-14T18:15:06.724Z,1003.43
2022-08-14T18:20:02.704Z,1003.35
2022-08-14T18:25:02.608Z,1003.31
2022-08-14T18:30:31.747Z,1003.35
2022-08-14T18:35:13.302Z,1003.36
2022-08-14T18:40:04.806Z,1003.45
2022-08-14T18:45:12.503Z,1003.44
2022-08-14T18:50:02.681Z,1003.42
2022-08-14T18:55:02.584Z,1003.39
2022-08-14T19:00:02.480Z,1003.38
2022-08-14T19:05:02.684Z,1003.35
2022-08-14T19:10:03.455Z,1003.4
2022-08-14T19:15:02.305Z,1003.43
2022-08-14T19:20:02.141Z,1003.34
2022-08-14T19:25:04.986Z,1003.37
2022-08-14T19:30:02.483Z,1003.36
2022-08-14T19:35:02.598Z,1003.41
2022-08-14T19:40:15.107Z,1003.49
2022-08-14T19:45:02.442Z,1003.39
2022-08-14T19:50:24.414Z,1003.43
2022-08-14T19:55:01.968Z,1003.37
2022-08-14T20:00:02.182Z,1003.41
2022-08-14T20:05:03.608Z,1003.44
2022-08-14T20:11:03.333Z,1003.34
2022-08-14T20:15:02.653Z,1003.34
2022-08-14T20:20:02.503Z,1003.32
2022-08-14T20:25:02.609Z,1003.27
2022-08-14T20:30:28.300Z,1003.31
2022-08-14T20:35:01.794Z,1003.22
2022-08-14T20:40:02.124Z,1003.31
2022-08-14T20:45:13.390Z,1003.3
2022-08-14T20:50:10.294Z,1003.3
2022-08-14T20:55:02.050Z,1003.33
2022-08-14T21:00:02.000Z,1003.23
2022-08-14T21:05:02.311Z,1003.26
2022-08-14T21:10:06.479Z,1003.23
2022-08-14T21:15:02.275Z,1003.23
2022-08-14T21:20:25.645Z,1003.16
2022-08-14T21:25:07.432Z,1003.19
2022-08-14T21:30:02.589Z,1003.15
2022-08-14T21:35:15.185Z,1003.15
2022-08-14T21:40:33.218Z,1003.25
2022-08-14T21:45:08.008Z,1003.13
2022-08-14T21:50:38.773Z,1003.12
2022-08-14T21:55:10.035Z,1003.05
2022-08-14T22:00:35.391Z,1002.99
2022-08-14T22:05:08.053Z,1002.94
2022-08-14T22:10:07.773Z,1002.97
2022-08-14T22:15:10.201Z,1002.92
2022-08-14T22:20:07.965Z,1002.88
2022-08-14T22:25:07.620Z,1002.86
2022-08-14T22:30:08.365Z,1002.85
2022-08-14T22:35:09.231Z,1002.69
2022-08-14T22:40:17.645Z,1002.63
2022-08-14T22:45:07.913Z,1002.65
2022-08-14T22:50:31.396Z,1002.74
2022-08-14T22:55:08.205Z,1002.59
2022-08-14T23:01:00.342Z,1002.61
2022-08-14T23:05:08.055Z,1002.61
2022-08-14T23:10:32.942Z,1002.62
2022-08-14T23:15:07.894Z,1002.59
2022-08-14T23:20:08.550Z,1002.58
2022-08-14T23:25:08.158Z,1002.44
2022-08-14T23:30:07.900Z,1002.46
2022-08-14T23:35:08.066Z,1002.4
2022-08-14T23:40:20.677Z,1002.34
2022-08-14T23:45:08.051Z,1002.19
2022-08-14T23:50:34.152Z,1002.17
2022-08-14T23:55:11.510Z,1002.08
